Time;durP1;ratioP1;P1;durP2;ratioP2;P2;SDS_P1;SDS_P2;PMS_P1;PMS_P2;Temp;Humidity;BMP_temperature;BMP_pressure;BME280_temperature;BME280_humidity;BME280_pressure;Samples;Min_cycle;Max_cycle;Signal;HPM_P1;HPM_P2
2023/09/16 00:01:35;;;;;;;5.28;2.50;;;;;;;14.74;86.66;100532.66;4916687;29;20074;-68
2023/09/16 00:04:38;;;;;;;5.32;2.20;;;;;;;14.71;86.67;100524.09;4905061;29;20127;-68
2023/09/16 00:07:42;;;;;;;5.28;2.60;;;;;;;14.65;86.82;100533.28;4916573;29;20046;-68
2023/09/16 00:10:45;;;;;;;3.97;2.45;;;;;;;14.61;86.80;100530.03;4916487;29;20051;-69
2023/09/16 00:13:48;;;;;;;8.27;3.08;;;;;;;14.61;86.87;100529.16;4916367;29;20047;-68
2023/09/16 00:16:53;;;;;;;6.78;2.88;;;;;;;14.52;87.30;100527.19;4916772;29;20079;-68
2023/09/16 00:19:56;;;;;;;4.68;2.80;;;;;;;14.47;87.68;100519.56;4911181;29;20059;-68
2023/09/16 00:22:59;;;;;;;5.85;2.53;;;;;;;14.45;88.03;100513.53;4911812;29;20622;-68
2023/09/16 00:26:03;;;;;;;6.72;2.92;;;;;;;14.43;87.66;100507.56;4916480;29;20072;-68
2023/09/16 00:29:07;;;;;;;4.43;2.22;;;;;;;14.47;87.50;100508.19;4916427;29;20103;-68
2023/09/16 00:32:10;;;;;;;10.82;2.90;;;;;;;14.37;87.89;100519.34;4916434;29;20108;-68
2023/09/16 00:35:13;;;;;;;6.75;2.22;;;;;;;14.37;88.10;100513.25;4904629;29;20095;-68
2023/09/16 00:38:17;;;;;;;5.70;2.40;;;;;;;14.31;88.28;100516.28;4908039;29;20046;-68
2023/09/16 00:41:20;;;;;;;10.15;2.72;;;;;;;14.30;88.21;100517.25;4908329;29;20251;-68
2023/09/16 00:44:24;;;;;;;8.38;3.25;;;;;;;14.23;89.05;100524.72;4919975;29;20100;-68
2023/09/16 00:47:27;;;;;;;5.60;2.83;;;;;;;14.22;89.01;100522.16;4908175;29;20095;-68
2023/09/16 00:50:30;;;;;;;4.25;2.60;;;;;;;14.27;88.36;100518.28;4919890;29;20054;-68
2023/09/16 00:53:33;;;;;;;5.32;2.55;;;;;;;14.23;88.60;100515.94;4919845;29;20038;-68
2023/09/16 00:56:38;;;;;;;5.38;2.83;;;;;;;14.25;88.49;100509.66;4908133;29;20426;-68
2023/09/16 00:59:42;;;;;;;8.38;2.60;;;;;;;14.24;88.55;100509.78;4919842;29;20123;-68
2023/09/16 01:02:46;;;;;;;8.88;3.03;;;;;;;14.12;89.07;100496.50;4908042;29;20122;-68
2023/09/16 01:05:51;;;;;;;4.30;2.50;;;;;;;14.19;88.71;100496.91;4919667;29;20562;-68
2023/09/16 01:08:54;;;;;;;7.63;3.35;;;;;;;14.26;88.36;100499.97;4919604;29;20509;-68
2023/09/16 01:11:58;;;;;;;8.55;3.00;;;;;;;14.16;88.47;100503.22;4919435;29;20438;-70
2023/09/16 01:15:13;;;;;;;6.78;2.83;;;;;;;14.23;88.22;100510.69;4907716;29;20100;-67
2023/09/16 01:18:32;;;;;;;5.13;2.58;;;;;;;14.25;87.84;100508.81;4919311;29;20112;-68
2023/09/16 01:21:35;;;;;;;4.82;2.78;;;;;;;14.24;87.63;100510.59;4900771;29;20648;-69
2023/09/16 01:24:40;;;;;;;5.20;2.72;;;;;;;14.19;87.96;100510.91;4900709;29;20050;-69
2023/09/16 01:27:44;;;;;;;4.60;2.47;;;;;;;14.05;88.18;100512.78;4888955;29;20052;-70
2023/09/16 01:30:50;;;;;;;6.20;2.90;;;;;;;14.05;88.60;100515.44;4888492;29;20083;-68
2023/09/16 01:33:54;;;;;;;3.10;2.33;;;;;;;13.98;88.55;100511.53;4888319;29;20119;-68
2023/09/16 01:36:58;;;;;;;4.70;2.80;;;;;;;13.88;89.11;100512.13;4888514;29;20059;-68
2023/09/16 01:40:10;;;;;;;4.47;2.33;;;;;;;13.83;89.50;100503.69;4888476;29;20103;-68
2023/09/16 01:43:15;;;;;;;10.63;4.07;;;;;;;13.95;88.49;100504.69;4897117;29;20097;-68
2023/09/16 01:46:18;;;;;;;7.55;2.70;;;;;;;13.96;88.58;100504.56;4900234;29;20099;-68
2023/09/16 01:49:22;;;;;;;9.75;2.58;;;;;;;13.94;88.54;100510.84;4899031;29;20104;-68
2023/09/16 01:52:26;;;;;;;5.30;2.88;;;;;;;13.89;89.20;100502.47;4899898;29;20044;-68
2023/09/16 01:55:30;;;;;;;5.43;2.65;;;;;;;13.86;88.71;100500.03;4899850;29;20111;-67
2023/09/16 01:58:34;;;;;;;5.00;2.95;;;;;;;13.82;88.85;100501.19;4899147;29;20412;-68
2023/09/16 02:01:37;;;;;;;11.10;3.35;;;;;;;13.73;89.83;100507.88;4888370;29;20096;-68
2023/09/16 02:04:43;;;;;;;6.97;3.38;;;;;;;13.71;90.20;100500.09;4899743;29;20067;-67
2023/09/16 02:07:47;;;;;;;7.43;2.47;;;;;;;13.80;89.15;100497.81;4887989;29;20479;-68
2023/09/16 02:10:51;;;;;;;10.88;3.47;;;;;;;13.85;88.39;100496.56;4888047;29;20043;-68
2023/09/16 02:13:54;;;;;;;5.78;2.67;;;;;;;13.83;88.45;100497.59;4894161;29;20047;-68
2023/09/16 02:16:57;;;;;;;4.07;2.60;;;;;;;13.78;88.59;100497.88;4899440;29;20060;-69
2023/09/16 02:20:01;;;;;;;6.43;2.70;;;;;;;13.80;89.35;100503.06;4898896;29;20082;-69
2023/09/16 02:23:04;;;;;;;8.68;3.95;;;;;;;13.81;88.96;100500.31;4906418;29;20087;-67
2023/09/16 02:26:08;;;;;;;7.18;2.83;;;;;;;13.79;88.39;100511.91;4917882;29;20168;-67
2023/09/16 02:29:12;;;;;;;5.60;2.35;;;;;;;13.84;88.03;100505.38;4917926;29;20078;-67
2023/09/16 02:32:15;;;;;;;6.68;2.95;;;;;;;13.81;88.37;100512.63;4917978;29;20051;-67
2023/09/16 02:40:28;;;;;;;3.60;2.30;;;;;;;13.70;88.64;100515.97;4916018;29;20054;-67
2023/09/16 02:44:22;;;;;;;7.43;2.58;;;;;;;13.73;88.35;100510.50;4905681;29;20566;-67
2023/09/16 02:47:25;;;;;;;3.90;2.42;;;;;;;13.71;88.27;100509.75;4904118;29;20047;-66
2023/09/16 02:50:28;;;;;;;6.20;2.60;;;;;;;13.68;88.54;100505.53;4905661;29;20099;-67
2023/09/16 02:53:32;;;;;;;6.32;2.60;;;;;;;13.65;88.55;100510.16;4905913;29;20043;-66
2023/09/16 02:56:35;;;;;;;5.93;2.92;;;;;;;13.69;88.32;100506.41;4917446;29;20554;-67
2023/09/16 02:59:39;;;;;;;4.28;2.40;;;;;;;13.69;88.13;100511.66;4905538;29;20055;-67
2023/09/16 03:02:47;;;;;;;9.93;2.45;;;;;;;13.69;88.00;100506.41;4917313;29;20517;-67
2023/09/16 03:05:50;;;;;;;4.40;2.35;;;;;;;13.61;88.22;100503.44;4905477;29;20054;-67
2023/09/16 03:08:54;;;;;;;12.82;2.67;;;;;;;13.59;88.36;100502.66;4917252;29;20466;-67
2023/09/16 03:11:57;;;;;;;7.82;2.67;;;;;;;13.55;88.29;100499.41;4905325;29;20115;-67
2023/09/16 03:15:00;;;;;;;10.15;3.58;;;;;;;13.52;88.67;100498.75;4917434;29;20135;-67
2023/09/16 03:18:04;;;;;;;9.00;2.70;;;;;;;13.53;88.24;100498.69;4905416;29;20062;-66
2023/09/16 03:21:07;;;;;;;;;;;;;;;13.54;88.22;100496.88;4905773;29;20119;-66
2023/09/16 03:24:10;;;;;;;7.40;2.83;;;;;;;13.44;89.13;100491.41;4916993;29;19926;-67
2023/09/16 03:27:14;;;;;;;11.23;3.72;;;;;;;13.44;88.86;100486.16;4905113;29;20039;-67
2023/09/16 03:30:17;;;;;;;6.47;2.17;;;;;;;13.48;88.77;100495.50;4916967;29;20993;-66
2023/09/16 03:33:22;;;;;;;11.27;4.30;;;;;;;13.46;88.53;100484.25;4905380;29;20402;-66
2023/09/16 03:36:25;;;;;;;3.75;2.30;;;;;;;13.39;89.00;100489.03;4916759;29;20074;-67
2023/09/16 03:39:29;;;;;;;6.80;2.60;;;;;;;13.38;88.95;100483.91;4905018;29;20521;-67
2023/09/16 03:42:32;;;;;;;7.95;2.90;;;;;;;13.36;89.01;100491.88;4904895;29;20103;-67
2023/09/16 03:45:36;;;;;;;6.43;2.63;;;;;;;13.26;89.44;100483.75;4904979;29;20131;-66
2023/09/16 03:48:39;;;;;;;6.05;2.80;;;;;;;13.28;89.30;100481.03;4916688;29;20184;-66
2023/09/16 03:51:43;;;;;;;9.48;2.90;;;;;;;13.24;89.90;100477.75;4916690;29;20096;-66
2023/09/16 03:54:48;;;;;;;8.68;2.70;;;;;;;13.28;89.49;100475.78;4904735;29;20582;-66
2023/09/16 03:57:52;;;;;;;5.72;2.75;;;;;;;13.22;89.49;100479.59;4904776;29;20055;-67
2023/09/16 04:00:55;;;;;;;;;;;;;;;13.24;89.12;100476.88;4905456;29;20142;-66
2023/09/16 04:03:59;;;;;;;6.38;3.15;;;;;;;13.29;88.88;100479.25;4916445;29;20337;-67
2023/09/16 04:07:02;;;;;;;5.75;3.05;;;;;;;13.28;88.57;100477.56;4904964;29;20062;-67
2023/09/16 04:10:07;;;;;;;8.27;2.50;;;;;;;13.16;88.94;100477.38;4904815;29;20577;-67
2023/09/16 04:13:09;;;;;;;8.93;2.75;;;;;;;13.18;89.09;100475.50;4916023;29;20099;-67
2023/09/16 04:16:14;;;;;;;4.03;2.50;;;;;;;13.14;88.83;100474.00;4904576;29;20103;-67
2023/09/16 04:19:18;;;;;;;6.90;2.72;;;;;;;13.06;89.45;100470.19;4916266;29;20094;-66
2023/09/16 04:22:21;;;;;;;4.05;2.50;;;;;;;13.07;89.08;100472.69;4916362;29;20055;-67
2023/09/16 04:25:25;;;;;;;5.75;2.65;;;;;;;13.07;89.05;100483.19;4893970;29;20100;-67
2023/09/16 04:28:29;;;;;;;6.40;2.60;;;;;;;13.08;88.41;100484.03;4903100;29;20071;-67
2023/09/16 04:31:33;;;;;;;4.60;2.30;;;;;;;13.00;89.21;100481.91;4902723;29;20466;-66
2023/09/16 04:34:36;;;;;;;6.38;2.28;;;;;;;12.84;89.49;100476.78;4915455;29;20132;-66
2023/09/16 04:37:39;;;;;;;9.88;2.63;;;;;;;12.96;89.99;100480.44;4904415;29;20140;-66
2023/09/16 04:40:43;;;;;;;6.05;2.53;;;;;;;12.79;90.68;100484.94;4904135;29;20582;-66
2023/09/16 04:43:49;;;;;;;5.63;2.47;;;;;;;12.81;90.65;100471.72;4904325;29;20055;-67
2023/09/16 04:46:53;;;;;;;8.35;2.60;;;;;;;12.95;89.49;100481.34;4904386;29;20188;-67
2023/09/16 04:50:00;;;;;;;5.43;3.03;;;;;;;12.92;89.23;100486.78;4904271;29;20050;-68
2023/09/16 04:53:05;;;;;;;6.45;2.67;;;;;;;12.89;89.34;100479.97;4904187;29;20095;-68
2023/09/16 04:56:09;;;;;;;6.13;2.50;;;;;;;12.92;89.10;100471.03;4915971;29;20430;-67
2023/09/16 04:59:15;;;;;;;5.40;2.65;;;;;;;12.87;89.31;100476.59;4904224;29;20086;-67
2023/09/16 05:02:18;;;;;;;3.63;2.22;;;;;;;12.89;88.95;100485.22;4903753;29;20122;-67
2023/09/16 05:05:21;;;;;;;6.30;2.60;;;;;;;12.88;88.83;100477.41;4901814;29;20063;-69
2023/09/16 05:08:24;;;;;;;;;;;;;;;12.92;88.65;100484.16;4904718;29;20091;-69
2023/09/16 05:11:28;;;;;;;6.55;2.65;;;;;;;12.83;89.09;100479.47;4904381;29;19922;-69
2023/09/16 05:14:35;;;;;;;6.05;2.78;;;;;;;12.87;88.59;100486.25;4904129;29;20047;-67
2023/09/16 05:17:40;;;;;;;3.80;2.25;;;;;;;12.84;88.74;100486.44;4915904;29;20123;-69
2023/09/16 05:20:43;;;;;;;5.28;2.63;;;;;;;12.77;89.20;100485.97;4904033;29;20078;-67
2023/09/16 05:23:47;;;;;;;5.72;2.20;;;;;;;12.78;89.02;100483.25;4905062;29;20050;-68
2023/09/16 05:26:51;;;;;;;5.18;2.47;;;;;;;12.71;89.35;100481.94;4907304;29;20075;-69
2023/09/16 05:29:56;;;;;;;5.28;2.65;;;;;;;12.77;89.24;100475.47;4907540;29;20419;-67
2023/09/16 05:32:59;;;;;;;4.38;2.63;;;;;;;12.74;89.54;100475.66;4907357;29;20406;-67
2023/09/16 05:36:03;;;;;;;6.60;2.65;;;;;;;12.80;89.13;100481.38;4907491;29;20087;-68
2023/09/16 05:39:05;;;;;;;;;;;;;;;12.82;89.04;100480.44;4919587;29;20086;-68
2023/09/16 05:42:09;;;;;;;5.05;3.20;;;;;;;12.81;89.00;100471.72;4907325;29;20297;-68
2023/09/16 05:45:13;;;;;;;4.30;2.55;;;;;;;12.87;89.09;100478.38;4907275;29;20083;-68
2023/09/16 05:48:16;;;;;;;7.70;2.50;;;;;;;12.87;89.00;100478.38;4919041;29;20532;-69
2023/09/16 05:51:20;;;;;;;5.13;2.67;;;;;;;12.82;89.50;100488.31;4907227;29;20128;-70
2023/09/16 05:54:26;;;;;;;6.93;2.60;;;;;;;12.76;89.81;100485.13;4907362;29;20046;-72
2023/09/16 05:57:30;;;;;;;5.13;2.50;;;;;;;12.84;89.95;100487.28;4907021;29;20187;-72
2023/09/16 06:00:33;;;;;;;4.80;2.20;;;;;;;12.88;89.66;100482.66;4907067;29;20414;-70
2023/09/16 06:03:37;;;;;;;4.47;2.95;;;;;;;12.84;89.99;100486.44;4906892;29;20050;-70
2023/09/16 06:06:40;;;;;;;5.40;2.60;;;;;;;12.85;90.33;100483.69;4918277;29;20099;-73
2023/09/16 06:09:44;;;;;;;4.00;2.47;;;;;;;12.64;92.21;100491.13;4906961;29;20047;-69
2023/09/16 06:12:47;;;;;;;5.18;2.67;;;;;;;12.77;92.09;100486.81;4918377;29;20131;-69
2023/09/16 06:20:10;;;;;;;6.35;2.72;;;;;;;13.09;90.54;100483.97;4914780;29;20100;-68
2023/09/16 06:23:14;;;;;;;6.10;3.03;;;;;;;13.08;91.44;100487.53;4906491;29;20103;-69
2023/09/16 06:26:18;;;;;;;5.28;2.53;;;;;;;13.04;91.33;100494.72;4918259;29;20123;-64
2023/09/16 06:29:23;;;;;;;8.18;2.70;;;;;;;12.97;92.54;100493.44;4906217;29;20050;-65
2023/09/16 06:32:27;;;;;;;9.90;2.90;;;;;;;12.95;94.07;100491.84;4906252;29;20058;-65
2023/09/16 06:35:33;;;;;;;6.72;2.70;;;;;;;13.04;93.79;100499.13;4917520;29;20042;-66
2023/09/16 06:38:36;;;;;;;7.78;2.90;;;;;;;13.04;93.79;100488.66;4905844;29;20059;-66
2023/09/16 06:41:41;;;;;;;8.75;2.92;;;;;;;13.14;93.73;100484.50;4906175;29;20051;-73
2023/09/16 06:44:54;;;;;;;4.90;3.05;;;;;;;13.45;92.82;100486.03;4900382;29;20043;-73
2023/09/16 06:47:58;;;;;;;6.15;2.70;;;;;;;13.73;91.32;100482.44;4917681;29;20111;-73
2023/09/16 06:51:01;;;;;;;6.78;2.75;;;;;;;13.83;90.64;100484.47;4916950;29;20129;-73
2023/09/16 06:54:05;;;;;;;5.28;2.78;;;;;;;13.88;91.16;100484.97;4917601;29;20460;-72
2023/09/16 06:57:09;;;;;;;6.47;3.05;;;;;;;13.92;91.20;100483.84;4917419;29;20091;-73
2023/09/16 07:00:13;;;;;;;6.43;2.95;;;;;;;14.00;91.60;100483.31;4914511;29;20131;-74
2023/09/16 07:03:19;;;;;;;9.70;3.35;;;;;;;13.98;91.82;100483.44;4917399;29;20108;-72
2023/09/16 07:06:24;;;;;;;5.75;2.90;;;;;;;14.01;91.29;100483.25;4916087;29;20070;-72
2023/09/16 07:09:28;;;;;;;6.20;3.47;;;;;;;14.12;91.19;100485.13;4917424;29;20518;-72
2023/09/16 07:12:32;;;;;;;5.80;2.95;;;;;;;14.25;92.13;100477.25;4916870;29;20103;-72
2023/09/16 07:15:36;;;;;;;7.18;3.35;;;;;;;14.18;93.10;100482.09;4916947;29;20046;-73
2023/09/16 07:18:39;;;;;;;5.35;2.75;;;;;;;14.29;92.78;100479.56;4916719;29;20104;-73
2023/09/16 07:21:43;;;;;;;5.20;3.70;;;;;;;14.42;92.29;100479.56;4905701;29;20074;-75
2023/09/16 07:24:46;;;;;;;5.28;3.20;;;;;;;14.52;92.16;100485.91;4917537;29;20103;-72
2023/09/16 07:27:50;;;;;;;4.72;3.53;;;;;;;14.64;91.98;100485.06;4916842;29;20095;-71
2023/09/16 07:30:53;;;;;;;6.25;3.38;;;;;;;14.76;93.82;100478.09;4916921;29;20051;-73
2023/09/16 07:33:56;;;;;;;4.85;3.40;;;;;;;14.83;92.80;100478.50;4916491;29;20063;-75
2023/09/16 07:37:01;;;;;;;8.45;3.45;;;;;;;14.91;92.63;100477.97;4915774;29;20051;-77
2023/09/16 07:40:05;;;;;;;4.65;3.45;;;;;;;15.01;92.52;100476.34;4916544;29;20055;-73
2023/09/16 07:43:11;;;;;;;6.55;3.92;;;;;;;15.10;92.75;100466.00;4916593;29;20513;-77
2023/09/16 07:46:15;;;;;;;5.70;3.00;;;;;;;15.28;94.47;100479.66;4913557;29;20099;-66
2023/09/16 07:49:23;;;;;;;8.60;3.78;;;;;;;15.42;93.77;100476.00;4915885;29;20064;-75
2023/09/16 07:52:29;;;;;;;7.85;4.03;;;;;;;15.61;93.62;100479.91;4915473;29;20525;-75
2023/09/16 07:55:38;;;;;;;11.70;4.15;;;;;;;15.74;92.38;100485.97;4915551;29;20600;-76
2023/09/16 07:58:42;;;;;;;7.05;4.30;;;;;;;15.86;92.50;100485.06;4916675;29;20479;-76
2023/09/16 08:01:49;;;;;;;6.68;3.72;;;;;;;15.90;92.90;100486.50;4915878;29;20059;-76
2023/09/16 08:04:55;;;;;;;5.78;3.78;;;;;;;15.97;91.42;100482.44;4905103;29;20047;-73
2023/09/16 08:07:59;;;;;;;4.75;3.72;;;;;;;16.07;90.06;100476.47;4916251;29;20055;-75
2023/09/16 08:11:03;;;;;;;7.20;4.00;;;;;;;16.19;89.99;100486.94;4907971;29;20524;-78
2023/09/16 08:14:06;;;;;;;11.18;4.05;;;;;;;16.24;88.06;100478.66;4892429;29;20198;-77
2023/09/16 08:17:10;;;;;;;6.18;3.42;;;;;;;16.33;87.78;100477.13;4879858;29;20059;-78
2023/09/16 08:20:18;;;;;;;8.07;3.40;;;;;;;16.43;87.86;100478.94;4905711;29;20114;-80
2023/09/16 08:23:22;;;;;;;4.95;4.03;;;;;;;16.55;87.83;100486.84;4916553;29;20074;-82
2023/09/16 08:26:28;;;;;;;9.18;3.70;;;;;;;16.67;86.77;100492.03;4916528;29;20055;-80
2023/09/16 08:29:32;;;;;;;5.43;3.47;;;;;;;16.76;86.43;100493.13;4916432;29;20566;-79
2023/09/16 08:32:38;;;;;;;7.70;3.92;;;;;;;16.88;85.05;100488.66;4914608;29;20135;-81
2023/09/16 08:35:43;;;;;;;5.78;3.17;;;;;;;16.97;83.71;100485.31;4914189;29;20051;-80
2023/09/16 08:38:46;;;;;;;6.10;4.28;;;;;;;17.10;84.95;100499.25;4897882;29;20075;-80
2023/09/16 08:41:59;;;;;;;7.10;3.55;;;;;;;17.16;83.91;100497.88;4896881;29;20520;-82
2023/09/16 08:45:20;;;;;;;6.60;3.75;;;;;;;17.16;84.02;100482.03;4885832;29;20048;-77
2023/09/16 08:48:25;;;;;;;4.93;3.42;;;;;;;17.28;83.84;100486.31;4900301;29;20489;-77
2023/09/16 08:51:34;;;;;;;7.10;4.30;;;;;;;17.44;83.27;100486.75;4914060;29;20154;-78
2023/09/16 08:54:41;;;;;;;6.20;3.50;;;;;;;17.56;84.26;100481.44;4914809;29;20118;-82
2023/09/16 08:57:52;;;;;;;6.82;4.40;;;;;;;17.61;83.68;100487.19;4913816;29;20047;-78
2023/09/16 09:00:56;;;;;;;22.05;4.50;;;;;;;17.71;82.64;100496.06;4919050;29;20051;-79
2023/09/16 09:04:00;;;;;;;4.40;3.50;;;;;;;17.74;81.92;100479.94;4918487;29;20071;-78
2023/09/16 09:07:05;;;;;;;8.38;4.38;;;;;;;17.85;84.60;100484.34;4917283;29;20047;-82
2023/09/16 09:10:12;;;;;;;8.52;3.90;;;;;;;17.95;83.48;100481.78;4916430;29;20140;-82
2023/09/16 09:13:15;;;;;;;7.88;3.97;;;;;;;18.13;82.66;100489.00;4917098;29;20088;-82
2023/09/16 09:16:22;;;;;;;5.32;3.45;;;;;;;18.18;81.51;100485.94;4917837;29;20046;-78
2023/09/16 09:19:26;;;;;;;6.35;3.42;;;;;;;18.34;81.89;100486.31;4930703;29;20058;-81
2023/09/16 09:22:33;;;;;;;5.32;3.40;;;;;;;18.47;81.48;100483.47;4933061;29;20166;-78
2023/09/16 09:25:41;;;;;;;6.00;3.63;;;;;;;18.51;80.21;100492.84;4935662;29;20110;-82
2023/09/16 09:28:48;;;;;;;5.63;4.13;;;;;;;18.58;81.28;100498.44;4931371;29;20577;-77
2023/09/16 09:31:53;;;;;;;5.25;3.00;;;;;;;18.71;80.72;100491.09;4932491;29;20577;-80
2023/09/16 09:35:06;;;;;;;11.02;3.50;;;;;;;18.79;79.80;100487.81;4934964;29;20090;-78
2023/09/16 09:38:10;;;;;;;4.75;3.35;;;;;;;18.83;80.31;100493.69;4938290;29;20046;-77
2023/09/16 09:41:13;;;;;;;5.22;3.95;;;;;;;18.99;79.61;100494.03;4935981;29;20125;-82
2023/09/16 09:44:17;;;;;;;4.50;3.00;;;;;;;19.05;78.88;100480.25;4932256;29;20054;-74
2023/09/16 09:47:24;;;;;;;6.97;3.63;;;;;;;19.20;79.25;100472.72;4921695;29;20141;-73
2023/09/16 09:50:30;;;;;;;5.65;4.15;;;;;;;19.23;78.74;100475.09;4934199;29;20047;-74
2023/09/16 09:53:34;;;;;;;7.55;4.05;;;;;;;19.37;78.27;100471.19;4934930;29;20122;-74
2023/09/16 09:56:37;;;;;;;5.95;3.92;;;;;;;19.44;79.65;100472.34;4933316;29;20086;-78
2023/09/16 09:59:41;;;;;;;8.23;3.63;;;;;;;19.58;79.27;100477.22;4916523;29;20434;-80
2023/09/16 10:02:45;;;;;;;8.45;3.15;;;;;;;19.88;80.61;100468.31;4901143;29;20178;-82
2023/09/16 10:05:49;;;;;;;9.98;3.88;;;;;;;19.84;77.01;100472.22;4916756;29;20470;-80
2023/09/16 10:08:54;;;;;;;4.07;3.00;;;;;;;19.87;78.23;100465.78;4914714;29;20094;-82
2023/09/16 10:11:58;;;;;;;6.20;3.17;;;;;;;19.90;77.10;100468.16;4914444;29;20095;-78
2023/09/16 10:15:07;;;;;;;7.18;3.45;;;;;;;19.90;77.07;100465.50;4914927;29;20403;-76
2023/09/16 10:18:12;;;;;;;8.30;3.72;;;;;;;19.97;76.98;100456.00;4916695;29;20079;-74
2023/09/16 10:21:15;;;;;;;8.93;3.33;;;;;;;20.06;77.50;100454.31;4899229;29;20047;-64
2023/09/16 10:24:20;;;;;;;7.97;3.42;;;;;;;20.20;76.47;100462.66;4914430;29;20387;-65
2023/09/16 10:27:27;;;;;;;9.90;3.42;;;;;;;20.23;76.81;100455.38;4915826;29;20051;-64
2023/09/16 10:30:35;;;;;;;5.72;3.60;;;;;;;20.24;78.32;100452.59;4914474;29;20465;-65
2023/09/16 10:33:42;;;;;;;5.55;3.10;;;;;;;20.36;77.77;100450.59;4915311;29;20047;-65
2023/09/16 10:36:48;;;;;;;5.28;3.10;;;;;;;20.46;76.53;100451.41;4913487;29;20051;-72
2023/09/16 10:39:55;;;;;;;6.50;3.20;;;;;;;20.53;74.37;100451.69;4890730;29;20604;-78
2023/09/16 10:43:02;;;;;;;5.47;3.10;;;;;;;20.56;76.28;100446.91;4911011;29;20059;-83
2023/09/16 10:46:06;;;;;;;7.97;3.42;;;;;;;20.69;75.57;100448.38;4914494;29;20393;-76
2023/09/16 10:49:11;;;;;;;7.88;3.42;;;;;;;20.84;74.69;100445.09;4911293;29;20572;-78
2023/09/16 10:52:17;;;;;;;5.10;3.42;;;;;;;20.87;74.43;100439.47;4912978;29;20095;-77
2023/09/16 10:55:59;;;;;;;7.68;3.65;;;;;;;20.98;74.95;100429.63;4913829;29;20355;-79
2023/09/16 10:59:08;;;;;;;5.15;3.60;;;;;;;21.18;74.01;100431.16;4913911;29;20066;-75
2023/09/16 11:02:51;;;;;;;6.13;3.70;;;;;;;21.25;72.62;100431.38;4915779;29;20104;-75
2023/09/16 11:05:57;;;;;;;6.35;3.50;;;;;;;21.21;73.90;100430.84;4915856;29;20082;-77
2023/09/16 11:09:01;;;;;;;7.65;3.65;;;;;;;21.43;73.74;100432.25;4904075;29;20187;-78
2023/09/16 11:12:05;;;;;;;6.15;3.67;;;;;;;21.61;73.23;100415.47;4918814;29;20527;-77
2023/09/16 11:15:10;;;;;;;4.72;3.10;;;;;;;21.75;75.17;100423.69;4916276;29;20434;-74
2023/09/16 11:18:17;;;;;;;4.70;3.10;;;;;;;21.87;72.35;100418.13;4916308;29;20063;-78
2023/09/16 11:21:22;;;;;;;5.63;4.00;;;;;;;21.93;73.21;100418.34;4916305;29;20191;-77
2023/09/16 11:24:27;;;;;;;6.97;3.58;;;;;;;21.85;73.98;100418.28;4915377;29;20096;-74
2023/09/16 11:27:32;;;;;;;6.63;3.70;;;;;;;21.97;72.46;100410.88;4916466;29;20047;-71
2023/09/16 11:30:37;;;;;;;5.40;3.30;;;;;;;22.21;71.68;100408.41;4903679;29;20050;-76
2023/09/16 11:33:42;;;;;;;6.00;3.70;;;;;;;22.31;71.34;100405.63;4916569;29;20079;-79
2023/09/16 11:36:51;;;;;;;4.32;3.20;;;;;;;22.34;70.45;100394.66;4915582;29;20059;-76
2023/09/16 11:40:00;;;;;;;4.35;3.90;;;;;;;22.35;71.87;100388.31;4915460;29;20062;-77
2023/09/16 11:43:04;;;;;;;9.32;3.45;;;;;;;22.63;70.54;100386.25;4915484;29;20131;-76
2023/09/16 11:46:09;;;;;;;8.68;3.28;;;;;;;22.85;68.98;100384.81;4915102;29;20051;-75
2023/09/16 11:49:15;;;;;;;8.48;3.78;;;;;;;22.80;69.34;100380.97;4915180;29;20047;-79
2023/09/16 11:52:18;;;;;;;4.13;3.15;;;;;;;22.92;70.63;100383.16;4914798;29;20070;-84
2023/09/16 11:55:22;;;;;;;8.32;3.70;;;;;;;22.95;69.52;100380.22;4912539;29;20099;-81
2023/09/16 11:58:26;;;;;;;7.18;3.70;;;;;;;23.18;68.50;100383.06;4914399;29;20150;-67
2023/09/16 12:01:32;;;;;;;6.53;3.58;;;;;;;23.23;68.09;100382.59;4906910;29;20124;-66
2023/09/16 12:04:36;;;;;;;5.10;3.33;;;;;;;23.23;67.96;100376.41;4913310;29;20571;-67
2023/09/16 12:07:40;;;;;;;7.38;3.30;;;;;;;23.25;68.43;100369.91;4912192;29;20051;-67
2023/09/16 12:10:44;;;;;;;7.00;4.00;;;;;;;23.47;68.41;100372.91;4916192;29;20103;-78
2023/09/16 12:13:54;;;;;;;5.43;3.15;;;;;;;23.77;67.88;100364.25;4902810;29;20062;-79
2023/09/16 12:17:02;;;;;;;5.07;3.72;;;;;;;23.88;67.98;100361.19;4891790;29;20186;-80
2023/09/16 12:20:10;;;;;;;6.40;3.28;;;;;;;24.19;67.18;100364.97;4913031;29;20091;-80
2023/09/16 12:23:16;;;;;;;5.60;3.15;;;;;;;24.39;66.38;100357.34;4913882;29;20145;-80
2023/09/16 12:26:31;;;;;;;5.75;3.72;;;;;;;24.71;63.26;100351.88;4914230;29;20054;-81
2023/09/16 12:29:34;;;;;;;5.30;3.83;;;;;;;24.85;64.26;100352.13;4906956;29;20051;-80
2023/09/16 12:33:03;;;;;;;6.45;3.33;;;;;;;25.19;62.70;100343.72;4915913;29;20406;-81
2023/09/16 12:36:08;;;;;;;5.18;3.08;;;;;;;25.40;62.33;100343.00;4916481;29;20078;-84
2023/09/16 12:39:16;;;;;;;6.72;3.40;;;;;;;25.68;62.06;100335.22;4896667;29;20418;-83
2023/09/16 12:42:19;;;;;;;5.20;3.78;;;;;;;26.08;59.71;100338.50;4900073;29;20086;-80
2023/09/16 12:45:25;;;;;;;3.92;2.88;;;;;;;26.55;58.59;100327.38;4899574;29;20064;-80
2023/09/16 12:48:31;;;;;;;6.28;3.35;;;;;;;26.94;55.77;100327.97;4887820;29;20052;-80
2023/09/16 12:51:37;;;;;;;5.53;3.53;;;;;;;27.15;55.34;100324.47;4899684;29;20044;-80
2023/09/16 12:54:42;;;;;;;8.07;3.45;;;;;;;27.20;55.07;100319.38;4899442;29;20044;-82
2023/09/16 12:57:47;;;;;;;6.40;3.40;;;;;;;27.66;53.66;100316.19;4899302;29;20080;-82
2023/09/16 13:00:52;;;;;;;4.93;3.20;;;;;;;27.84;53.96;100313.03;4887870;29;20055;-69
2023/09/16 13:03:59;;;;;;;7.82;3.30;;;;;;;27.77;53.81;100310.31;4894050;29;20518;-72
2023/09/16 13:07:02;;;;;;;5.20;3.65;;;;;;;28.02;53.44;100313.34;4899018;29;20198;-70
2023/09/16 13:10:07;;;;;;;5.80;3.35;;;;;;;28.86;51.32;100315.69;4898666;29;20152;-70
2023/09/16 13:13:15;;;;;;;6.20;3.17;;;;;;;29.46;49.48;100312.22;4899010;29;20047;-74
2023/09/16 13:16:35;;;;;;;6.28;2.63;;;;;;;29.93;48.19;100302.16;4899075;29;20063;-69
2023/09/16 13:19:40;;;;;;;6.45;3.67;;;;;;;31.09;45.44;100298.47;4887522;29;20108;-69
2023/09/16 13:22:53;;;;;;;3.60;2.90;;;;;;;31.67;41.87;100292.75;4898934;29;20105;-70
2023/09/16 13:26:13;;;;;;;5.85;3.20;;;;;;;34.38;36.73;100284.03;4893957;29;20056;-70
2023/09/16 13:29:16;;;;;;;4.30;3.25;;;;;;;36.24;34.48;100284.69;4880205;29;20422;-68
2023/09/16 13:32:20;;;;;;;4.10;3.15;;;;;;;35.64;33.59;100282.84;4898931;29;20047;-69
2023/09/16 13:35:25;;;;;;;4.43;3.15;;;;;;;37.02;32.12;100268.03;4898758;29;20047;-69
2023/09/16 13:38:29;;;;;;;5.60;2.53;;;;;;;37.38;32.18;100271.81;4898743;29;20047;-71
2023/09/16 13:41:32;;;;;;;7.22;3.05;;;;;;;38.33;30.48;100266.22;4898237;29;20043;-70
2023/09/16 13:44:38;;;;;;;4.55;3.00;;;;;;;37.92;31.12;100266.13;4897580;29;20079;-70
2023/09/16 13:47:41;;;;;;;4.68;2.95;;;;;;;35.14;34.94;100283.75;4898764;29;20104;-69
2023/09/16 13:50:48;;;;;;;3.58;2.92;;;;;;;37.78;30.66;100267.69;4898636;29;20047;-69
2023/09/16 13:53:51;;;;;;;7.68;2.90;;;;;;;37.85;29.88;100272.88;4898268;29;20043;-69
2023/09/16 13:57:01;;;;;;;6.25;2.60;;;;;;;33.30;37.47;100280.09;4898225;29;20132;-70
2023/09/16 14:00:05;;;;;;;6.15;3.67;;;;;;;32.67;38.57;100281.53;4886800;29;20117;-70
2023/09/16 14:03:09;;;;;;;8.32;3.30;;;;;;;34.95;34.66;100270.41;4898383;29;20055;-70
2023/09/16 14:06:14;;;;;;;6.30;2.75;;;;;;;37.20;32.05;100270.31;4898248;29;20055;-70
2023/09/16 14:09:18;;;;;;;4.75;2.72;;;;;;;38.47;29.07;100269.25;4886314;29;20538;-72
2023/09/16 14:12:21;;;;;;;3.58;2.90;;;;;;;39.56;29.11;100273.56;4897761;29;20104;-71
2023/09/16 14:15:27;;;;;;;4.03;2.75;;;;;;;39.30;28.83;100270.91;4897917;29;20056;-71
2023/09/16 14:18:31;;;;;;;4.68;2.83;;;;;;;39.40;28.23;100261.84;4898224;29;20083;-70
2023/09/16 14:21:40;;;;;;;5.68;2.92;;;;;;;40.36;26.83;100260.59;4898133;29;20567;-69
2023/09/16 14:24:46;;;;;;;;;;;;;;;37.41;30.15;100265.81;4898310;29;20411;-70
2023/09/16 14:27:53;;;;;;;4.95;2.65;;;;;;;32.28;40.36;100272.91;4898082;29;20010;-70
2023/09/16 14:31:07;;;;;;;5.47;2.70;;;;;;;29.97;47.00;100271.06;4897791;29;20047;-70
2023/09/16 14:34:17;;;;;;;4.75;2.42;;;;;;;28.42;51.77;100271.31;4895652;29;20091;-70